createdAt,value
2019-04-30T00:00:38.489Z,1014.87
2019-04-30T00:01:38.016Z,1014.89
2019-04-30T00:02:40.076Z,1014.83
2019-04-30T00:03:38.011Z,1014.81
2019-04-30T00:04:40.523Z,1014.84
2019-04-30T00:05:37.976Z,1014.79
2019-04-30T00:06:39.515Z,1014.80
2019-04-30T00:07:38.207Z,1014.84
2019-04-30T00:08:39.115Z,1014.84
2019-04-30T00:09:37.972Z,1014.84
2019-04-30T00:10:41.120Z,1014.80
2019-04-30T00:11:37.905Z,1014.81
2019-04-30T00:12:39.531Z,1014.87
2019-04-30T00:13:37.881Z,1014.84
2019-04-30T00:14:41.259Z,1014.86
2019-04-30T00:15:37.903Z,1014.89
2019-04-30T00:16:39.911Z,1014.85
2019-04-30T00:17:37.837Z,1014.85
2019-04-30T00:18:39.600Z,1014.87
2019-04-30T00:19:37.861Z,1014.86
2019-04-30T00:20:38.764Z,1014.85
2019-04-30T00:21:37.849Z,1014.86
2019-04-30T00:22:39.254Z,1014.89
2019-04-30T00:23:38.770Z,1014.85
2019-04-30T00:24:39.920Z,1014.89
2019-04-30T00:25:38.746Z,1014.80
2019-04-30T00:26:39.855Z,1014.82
2019-04-30T00:27:38.721Z,1014.84
2019-04-30T00:28:39.359Z,1014.81
2019-04-30T00:29:38.700Z,1014.90
2019-04-30T00:30:39.289Z,1014.82
2019-04-30T00:31:38.680Z,1014.82
2019-04-30T00:32:43.485Z,1014.80
2019-04-30T00:33:38.660Z,1014.78
2019-04-30T00:34:39.408Z,1014.82
2019-04-30T00:35:37.676Z,1014.75
2019-04-30T00:36:37.653Z,1014.78
2019-04-30T00:37:37.634Z,1014.80
2019-04-30T00:38:37.977Z,1014.82
2019-04-30T00:39:37.610Z,1014.77
2019-04-30T00:40:37.578Z,1014.76
2019-04-30T00:41:39.882Z,1014.76
2019-04-30T00:42:38.558Z,1014.71
2019-04-30T00:43:41.983Z,1014.71
2019-04-30T00:44:38.531Z,1014.71
2019-04-30T00:45:40.020Z,1014.74
2019-04-30T00:46:38.551Z,1014.74
2019-04-30T00:47:39.588Z,1014.73
2019-04-30T00:48:38.493Z,1014.70
2019-04-30T00:49:37.519Z,1014.70
2019-04-30T00:50:37.464Z,1014.75
2019-04-30T00:51:37.454Z,1014.71
2019-04-30T00:52:37.487Z,1014.73
2019-04-30T00:53:37.433Z,1014.76
2019-04-30T00:54:37.420Z,1014.72
2019-04-30T00:55:40.242Z,1014.74
2019-04-30T00:56:38.397Z,1014.69
2019-04-30T00:57:43.754Z,1014.67
2019-04-30T00:58:38.374Z,1014.65
2019-04-30T00:59:39.870Z,1014.67
2019-04-30T01:00:38.392Z,1014.69
2019-04-30T01:01:43.386Z,1014.70
2019-04-30T01:02:38.394Z,1014.65
2019-04-30T01:03:39.428Z,1014.62
2019-04-30T01:04:38.305Z,1014.63
2019-04-30T01:05:39.656Z,1014.66
2019-04-30T01:06:38.282Z,1014.65
2019-04-30T01:07:39.629Z,1014.61
2019-04-30T01:08:38.260Z,1014.64
2019-04-30T01:09:42.338Z,1014.60
2019-04-30T01:10:38.238Z,1014.67
2019-04-30T01:11:39.736Z,1014.63
2019-04-30T01:12:43.868Z,1014.64
2019-04-30T01:13:38.946Z,1014.60
2019-04-30T01:14:38.596Z,1014.59
2019-04-30T01:15:38.976Z,1014.65
2019-04-30T01:16:37.173Z,1014.64
2019-04-30T01:17:38.233Z,1014.66
2019-04-30T01:18:38.928Z,1014.57
2019-04-30T01:19:37.139Z,1014.59
2019-04-30T01:20:38.601Z,1014.55
2019-04-30T01:21:41.823Z,1014.60
2019-04-30T01:22:38.889Z,1014.56
2019-04-30T01:23:43.172Z,1014.54
2019-04-30T01:24:38.694Z,1014.54
2019-04-30T01:25:38.783Z,1014.60
2019-04-30T01:26:37.061Z,1014.59
2019-04-30T01:27:39.466Z,1014.65
2019-04-30T01:28:38.607Z,1014.62
2019-04-30T01:29:40.923Z,1014.61
2019-04-30T01:30:39.379Z,1014.60
2019-04-30T01:31:40.609Z,1014.57
2019-04-30T01:32:37.040Z,1014.62
2019-04-30T01:33:38.894Z,1014.62
2019-04-30T01:34:37.017Z,1014.58
2019-04-30T01:35:38.219Z,1014.57
2019-04-30T01:36:36.950Z,1014.56
2019-04-30T01:37:38.673Z,1014.52
2019-04-30T01:38:40.059Z,1014.53
2019-04-30T01:39:36.911Z,1014.60
2019-04-30T01:40:38.413Z,1014.56
2019-04-30T01:41:39.988Z,1014.57
2019-04-30T01:42:42.807Z,1014.55
2019-04-30T01:43:38.604Z,1014.56
2019-04-30T01:44:36.861Z,1014.57
2019-04-30T01:45:38.632Z,1014.59
2019-04-30T01:46:36.834Z,1014.60
2019-04-30T01:47:36.869Z,1014.54
2019-04-30T01:48:36.857Z,1014.59
2019-04-30T01:49:44.200Z,1014.53
2019-04-30T01:50:41.700Z,1014.55
2019-04-30T01:51:38.645Z,1014.53
2019-04-30T01:52:36.765Z,1014.54
2019-04-30T01:53:38.636Z,1014.55
2019-04-30T01:54:36.790Z,1014.55
2019-04-30T01:55:36.731Z,1014.54
2019-04-30T01:56:36.718Z,1014.56
2019-04-30T01:57:36.751Z,1014.61
2019-04-30T01:58:36.698Z,1014.58
2019-04-30T01:59:36.692Z,1014.55
2019-04-30T02:00:36.675Z,1014.54
2019-04-30T02:01:38.939Z,1014.59
2019-04-30T02:02:36.700Z,1014.58
2019-04-30T02:03:36.639Z,1014.59
2019-04-30T02:04:36.638Z,1014.56
2019-04-30T02:05:36.617Z,1014.56
2019-04-30T02:06:36.605Z,1014.58
2019-04-30T02:07:38.811Z,1014.61
2019-04-30T02:08:36.623Z,1014.58
2019-04-30T02:09:36.576Z,1014.57
2019-04-30T02:10:36.570Z,1014.60
2019-04-30T02:11:36.590Z,1014.57
2019-04-30T02:12:36.537Z,1014.60
2019-04-30T02:13:36.524Z,1014.63
2019-04-30T02:14:36.515Z,1014.63
2019-04-30T02:15:36.557Z,1014.61
2019-04-30T02:16:36.493Z,1014.65
2019-04-30T02:17:36.480Z,1014.63
2019-04-30T02:18:36.472Z,1014.63
2019-04-30T02:19:36.458Z,1014.64
2019-04-30T02:20:38.369Z,1014.61
2019-04-30T02:21:36.435Z,1014.63
2019-04-30T02:22:36.441Z,1014.62
2019-04-30T02:23:36.456Z,1014.57
2019-04-30T02:24:36.401Z,1014.55
2019-04-30T02:25:36.389Z,1014.56
2019-04-30T02:26:36.381Z,1014.57
2019-04-30T02:27:36.370Z,1014.55
2019-04-30T02:28:36.400Z,1014.55
2019-04-30T02:29:36.384Z,1014.60
2019-04-30T02:30:36.340Z,1014.60
2019-04-30T02:31:36.325Z,1014.60
2019-04-30T02:32:36.311Z,1014.60
2019-04-30T02:33:36.305Z,1014.57
2019-04-30T02:34:36.287Z,1014.57
2019-04-30T02:35:36.323Z,1014.58
2019-04-30T02:36:36.266Z,1014.59
2019-04-30T02:37:36.255Z,1014.64
2019-04-30T02:38:36.254Z,1014.62
2019-04-30T02:39:36.255Z,1014.65
2019-04-30T02:40:36.277Z,1014.65
2019-04-30T02:41:36.215Z,1014.62
2019-04-30T02:42:36.197Z,1014.61
2019-04-30T02:43:36.249Z,1014.58
2019-04-30T02:44:36.176Z,1014.63
2019-04-30T02:45:36.171Z,1014.61
2019-04-30T02:46:36.194Z,1014.62
2019-04-30T02:47:36.140Z,1014.62
2019-04-30T02:48:36.133Z,1014.61
2019-04-30T02:49:36.162Z,1014.56
2019-04-30T02:50:36.111Z,1014.60
2019-04-30T02:51:36.136Z,1014.62
2019-04-30T02:52:36.086Z,1014.61
2019-04-30T02:53:36.081Z,1014.62
2019-04-30T02:54:36.062Z,1014.60
2019-04-30T02:55:36.052Z,1014.59
2019-04-30T02:56:36.047Z,1014.58
2019-04-30T02:57:36.071Z,1014.57
2019-04-30T02:58:36.017Z,1014.61
2019-04-30T02:59:36.004Z,1014.61
2019-04-30T03:00:36.048Z,1014.56
2019-04-30T03:01:35.983Z,1014.58
2019-04-30T03:02:35.980Z,1014.59
2019-04-30T03:03:35.958Z,1014.57
2019-04-30T03:04:35.952Z,1014.63
2019-04-30T03:05:35.938Z,1014.64
2019-04-30T03:06:35.967Z,1014.61
2019-04-30T03:07:35.948Z,1014.62
2019-04-30T03:08:35.913Z,1014.63
2019-04-30T03:09:35.894Z,1014.60
2019-04-30T03:10:35.930Z,1014.60
2019-04-30T03:11:35.868Z,1014.62
2019-04-30T03:12:35.862Z,1014.59
2019-04-30T03:13:37.873Z,1014.59
2019-04-30T03:14:35.833Z,1014.57
2019-04-30T03:15:35.835Z,1014.55
2019-04-30T03:16:35.852Z,1014.50
2019-04-30T03:17:35.840Z,1014.60
2019-04-30T03:18:35.788Z,1014.56
2019-04-30T03:19:35.784Z,1014.55
2019-04-30T03:20:36.628Z,1014.57
2019-04-30T03:21:35.756Z,1014.55
2019-04-30T03:22:35.797Z,1014.53
2019-04-30T03:23:35.740Z,1014.57
2019-04-30T03:24:35.751Z,1014.50
2019-04-30T03:25:35.719Z,1014.45
2019-04-30T03:26:35.698Z,1014.47
2019-04-30T03:27:35.739Z,1014.43
2019-04-30T03:28:35.677Z,1014.39
2019-04-30T03:29:35.669Z,1014.46
2019-04-30T03:30:35.653Z,1014.43
2019-04-30T03:31:35.644Z,1014.38
2019-04-30T03:32:36.760Z,1014.43
2019-04-30T03:33:36.672Z,1014.44
2019-04-30T03:34:35.610Z,1014.42
2019-04-30T03:35:35.597Z,1014.40
2019-04-30T03:36:35.590Z,1014.39
2019-04-30T03:37:35.575Z,1014.44
2019-04-30T03:38:35.617Z,1014.41
2019-04-30T03:39:35.556Z,1014.40
2019-04-30T03:40:35.549Z,1014.45
2019-04-30T03:41:35.531Z,1014.36
2019-04-30T03:42:35.517Z,1014.37
2019-04-30T03:43:35.504Z,1014.39
2019-04-30T03:44:35.548Z,1014.39
2019-04-30T03:45:35.484Z,1014.40
2019-04-30T03:46:35.517Z,1014.41
2019-04-30T03:47:35.471Z,1014.38
2019-04-30T03:48:35.470Z,1014.36
2019-04-30T03:49:35.438Z,1014.40
2019-04-30T03:50:49.374Z,1014.36
2019-04-30T03:51:36.414Z,1014.37
2019-04-30T03:52:35.402Z,1014.34
2019-04-30T03:53:35.396Z,1014.35
2019-04-30T03:54:35.395Z,1014.31
2019-04-30T03:55:35.368Z,1014.32
2019-04-30T03:56:35.414Z,1014.32
2019-04-30T03:57:35.349Z,1014.37
2019-04-30T03:58:35.342Z,1014.36
2019-04-30T03:59:35.325Z,1014.30
2019-04-30T04:00:35.352Z,1014.32
2019-04-30T04:01:35.346Z,1014.37
2019-04-30T04:02:35.296Z,1014.32
2019-04-30T04:03:35.281Z,1014.35
2019-04-30T04:04:35.268Z,1014.31
2019-04-30T04:05:35.271Z,1014.31
2019-04-30T04:06:35.245Z,1014.34
2019-04-30T04:07:35.275Z,1014.36
2019-04-30T04:08:35.229Z,1014.34
2019-04-30T04:09:35.209Z,1014.31
2019-04-30T04:10:35.199Z,1014.32
2019-04-30T04:11:35.240Z,1014.31
2019-04-30T04:12:35.175Z,1014.35
2019-04-30T04:13:35.217Z,1014.33
2019-04-30T04:14:35.152Z,1014.34
2019-04-30T04:15:35.140Z,1014.34
2019-04-30T04:16:35.137Z,1014.36
2019-04-30T04:17:35.239Z,1014.36
2019-04-30T04:18:35.113Z,1014.34
2019-04-30T04:19:35.096Z,1014.37
2019-04-30T04:20:35.084Z,1014.39
2019-04-30T04:21:35.074Z,1014.35
2019-04-30T04:22:35.103Z,1014.36
2019-04-30T04:23:35.056Z,1014.37
2019-04-30T04:24:35.039Z,1014.38
2019-04-30T04:25:35.078Z,1014.38
2019-04-30T04:26:35.015Z,1014.35
2019-04-30T04:27:35.006Z,1014.36
2019-04-30T04:28:35.000Z,1014.35
2019-04-30T04:29:34.981Z,1014.34
2019-04-30T04:30:35.028Z,1014.33
2019-04-30T04:31:34.959Z,1014.32
2019-04-30T04:32:34.952Z,1014.28
2019-04-30T04:33:34.995Z,1014.30
2019-04-30T04:34:34.945Z,1014.28
2019-04-30T04:35:34.914Z,1014.25
2019-04-30T04:36:34.947Z,1014.29
2019-04-30T04:37:34.892Z,1014.30
2019-04-30T04:38:34.879Z,1014.27
2019-04-30T04:39:34.911Z,1014.33
2019-04-30T04:40:34.862Z,1014.29
2019-04-30T04:41:34.847Z,1014.29
2019-04-30T04:42:34.844Z,1014.22
2019-04-30T04:43:34.826Z,1014.27
2019-04-30T04:44:34.856Z,1014.28
2019-04-30T04:45:34.809Z,1014.29
2019-04-30T04:46:34.789Z,1014.29
2019-04-30T04:47:34.790Z,1014.30
2019-04-30T04:48:34.766Z,1014.29
2019-04-30T04:49:34.760Z,1014.29
2019-04-30T04:50:34.783Z,1014.31
2019-04-30T04:51:39.387Z,1014.30
2019-04-30T04:52:35.766Z,1014.31
2019-04-30T04:53:34.710Z,1014.32
2019-04-30T04:54:34.699Z,1014.37
2019-04-30T04:55:34.743Z,1014.39
2019-04-30T04:56:34.721Z,1014.39
2019-04-30T04:57:34.704Z,1014.42
2019-04-30T04:58:34.655Z,1014.40
2019-04-30T04:59:34.691Z,1014.39
2019-04-30T05:00:34.630Z,1014.36
2019-04-30T05:01:34.627Z,1014.38
2019-04-30T05:02:34.618Z,1014.40
2019-04-30T05:03:34.616Z,1014.37
2019-04-30T05:04:34.587Z,1014.39
2019-04-30T05:05:34.658Z,1014.34
2019-04-30T05:06:34.564Z,1014.38
2019-04-30T05:07:34.573Z,1014.35
2019-04-30T05:08:34.645Z,1014.40
2019-04-30T05:09:34.569Z,1014.37
2019-04-30T05:10:34.518Z,1014.36
2019-04-30T05:11:34.521Z,1014.35
2019-04-30T05:12:37.230Z,1014.33
2019-04-30T05:13:34.744Z,1014.34
2019-04-30T05:14:34.524Z,1014.32
2019-04-30T05:15:34.471Z,1014.35
2019-04-30T05:16:34.449Z,1014.35
2019-04-30T05:17:34.444Z,1014.33
2019-04-30T05:18:34.431Z,1014.39
2019-04-30T05:19:34.466Z,1014.39
2019-04-30T05:20:34.409Z,1014.37
2019-04-30T05:21:42.748Z,1014.40
2019-04-30T05:22:35.475Z,1014.43
2019-04-30T05:23:34.391Z,1014.40
2019-04-30T05:24:34.399Z,1014.41
2019-04-30T05:25:34.350Z,1014.45
2019-04-30T05:26:34.339Z,1014.43
2019-04-30T05:27:34.334Z,1014.40
2019-04-30T05:28:34.319Z,1014.34
2019-04-30T05:29:34.374Z,1014.38
2019-04-30T05:30:34.292Z,1014.41
2019-04-30T05:31:34.380Z,1014.43
2019-04-30T05:32:34.312Z,1014.36
2019-04-30T05:33:34.256Z,1014.39
2019-04-30T05:34:34.295Z,1014.40
2019-04-30T05:35:34.235Z,1014.38
2019-04-30T05:36:34.225Z,1014.37
2019-04-30T05:37:34.233Z,1014.35
2019-04-30T05:38:34.253Z,1014.38
2019-04-30T05:39:34.196Z,1014.43
2019-04-30T05:40:34.194Z,1014.47
2019-04-30T05:41:34.251Z,1014.45
2019-04-30T05:42:34.156Z,1014.47
2019-04-30T05:43:34.156Z,1014.46
2019-04-30T05:44:34.248Z,1014.43
2019-04-30T05:45:34.126Z,1014.47
2019-04-30T05:46:34.109Z,1014.46
2019-04-30T05:47:34.103Z,1014.47
2019-04-30T05:48:34.094Z,1014.47
2019-04-30T05:49:34.143Z,1014.46
2019-04-30T05:50:34.131Z,1014.45
2019-04-30T05:51:34.069Z,1014.49
2019-04-30T05:52:34.057Z,1014.47
2019-04-30T05:53:34.037Z,1014.46
2019-04-30T05:54:34.074Z,1014.47
2019-04-30T05:55:34.066Z,1014.43
2019-04-30T05:56:34.016Z,1014.43
2019-04-30T05:57:34.000Z,1014.46
2019-04-30T05:58:33.981Z,1014.49
2019-04-30T05:59:33.960Z,1014.52
2019-04-30T06:00:34.004Z,1014.53
2019-04-30T06:01:33.953Z,1014.52
2019-04-30T06:02:34.292Z,1014.52
2019-04-30T06:03:33.963Z,1014.50
2019-04-30T06:04:33.929Z,1014.57
2019-04-30T06:05:33.975Z,1014.54
2019-04-30T06:06:33.900Z,1014.50
2019-04-30T06:07:33.911Z,1014.58
2019-04-30T06:08:33.911Z,1014.54
2019-04-30T06:09:34.136Z,1014.57
2019-04-30T06:10:33.840Z,1014.57
2019-04-30T06:11:33.873Z,1014.61
2019-04-30T06:12:33.828Z,1014.62
2019-04-30T06:13:33.911Z,1014.60
2019-04-30T06:14:45.908Z,1014.63
2019-04-30T06:15:34.898Z,1014.70
2019-04-30T06:16:33.775Z,1014.61
2019-04-30T06:17:33.762Z,1014.63
2019-04-30T06:18:33.770Z,1014.67
2019-04-30T06:19:33.751Z,1014.61
2019-04-30T06:20:33.782Z,1014.61
2019-04-30T06:21:33.762Z,1014.66
2019-04-30T06:22:33.705Z,1014.66
2019-04-30T06:23:33.833Z,1014.63
2019-04-30T06:24:34.015Z,1014.63
2019-04-30T06:25:54.848Z,1014.65
2019-04-30T06:26:34.781Z,1014.62
2019-04-30T06:27:33.653Z,1014.62
2019-04-30T06:28:33.659Z,1014.62
2019-04-30T06:29:33.644Z,1014.62
2019-04-30T06:30:33.659Z,1014.66
2019-04-30T06:31:37.319Z,1014.62
2019-04-30T06:32:34.693Z,1014.62
2019-04-30T06:33:33.694Z,1014.56
2019-04-30T06:34:33.583Z,1014.56
2019-04-30T06:35:33.591Z,1014.51
2019-04-30T06:36:33.591Z,1014.62
2019-04-30T06:37:33.574Z,1014.58
2019-04-30T06:38:33.563Z,1014.57
2019-04-30T06:39:33.610Z,1014.61
2019-04-30T06:40:33.528Z,1014.64
2019-04-30T06:41:33.598Z,1014.67
2019-04-30T06:42:33.496Z,1014.64
2019-04-30T06:43:33.567Z,1014.60
2019-04-30T06:44:38.920Z,1014.62
2019-04-30T06:45:34.444Z,1014.64
2019-04-30T06:46:38.796Z,1014.62
2019-04-30T06:47:33.555Z,1014.63
2019-04-30T06:48:33.623Z,1014.67
2019-04-30T06:49:33.398Z,1014.53
2019-04-30T06:50:43.729Z,1014.53
2019-04-30T06:51:34.523Z,1014.57
2019-04-30T06:52:33.462Z,1014.59
2019-04-30T06:53:42.905Z,1014.64
2019-04-30T06:54:33.382Z,1014.68
2019-04-30T06:55:33.334Z,1014.65
2019-04-30T06:56:33.333Z,1014.62
2019-04-30T06:57:33.395Z,1014.57
2019-04-30T06:58:45.196Z,1014.63
2019-04-30T06:59:33.286Z,1014.62
2019-04-30T07:00:35.597Z,1014.63
2019-04-30T07:01:33.267Z,1014.60
2019-04-30T07:02:33.350Z,1014.62
2019-04-30T07:03:33.249Z,1014.62
2019-04-30T07:04:34.483Z,1014.68
2019-04-30T07:05:33.256Z,1014.66
2019-04-30T07:06:37.081Z,1014.64
2019-04-30T07:07:38.641Z,1014.70
2019-04-30T07:08:39.134Z,1014.63
2019-04-30T07:09:48.820Z,1014.68
2019-04-30T07:10:34.170Z,1014.66
2019-04-30T07:11:33.223Z,1014.74
2019-04-30T07:12:34.177Z,1014.77
2019-04-30T07:13:33.131Z,1014.69
2019-04-30T07:14:33.121Z,1014.67
2019-04-30T07:15:33.182Z,1014.71
2019-04-30T07:16:33.130Z,1014.74
2019-04-30T07:17:33.157Z,1014.75
2019-04-30T07:18:33.172Z,1014.78
2019-04-30T07:19:50.301Z,1014.78
2019-04-30T07:20:34.207Z,1014.76
2019-04-30T07:21:36.509Z,1014.74
2019-04-30T07:22:40.091Z,1014.73
2019-04-30T07:23:34.008Z,1014.77
2019-04-30T07:24:33.025Z,1014.80
2019-04-30T07:25:33.089Z,1014.78
2019-04-30T07:26:33.099Z,1014.75
2019-04-30T07:27:33.007Z,1014.70
2019-04-30T07:28:43.249Z,1014.71
2019-04-30T07:29:33.952Z,1014.74
2019-04-30T07:30:32.933Z,1014.80
2019-04-30T07:31:32.993Z,1014.78
2019-04-30T07:32:32.916Z,1014.77
2019-04-30T07:33:32.936Z,1014.77
2019-04-30T07:34:36.810Z,1014.83
2019-04-30T07:35:32.891Z,1014.82
2019-04-30T07:36:45.268Z,1014.83
2019-04-30T07:37:33.942Z,1014.85
2019-04-30T07:38:35.764Z,1014.82
2019-04-30T07:39:33.891Z,1014.84
2019-04-30T07:40:32.826Z,1014.81
2019-04-30T07:41:32.823Z,1014.74
2019-04-30T07:42:37.028Z,1014.80
2019-04-30T07:43:33.906Z,1014.77
2019-04-30T07:44:36.381Z,1014.78
2019-04-30T07:45:32.775Z,1014.81
2019-04-30T07:46:35.108Z,1014.81
2019-04-30T07:47:33.798Z,1014.84
2019-04-30T07:48:32.744Z,1014.80
2019-04-30T07:49:47.038Z,1014.78
2019-04-30T07:50:34.387Z,1014.82
2019-04-30T07:52:35.050Z,1014.87
2019-04-30T07:53:32.739Z,1014.78
2019-04-30T07:54:32.723Z,1014.81
2019-04-30T07:55:32.716Z,1014.88
2019-04-30T07:56:37.686Z,1014.83
2019-04-30T07:57:33.669Z,1014.82
2019-04-30T07:58:32.634Z,1014.82
2019-04-30T07:59:33.587Z,1014.92
2019-04-30T08:00:32.659Z,1014.84
2019-04-30T08:01:32.597Z,1014.83
2019-04-30T08:02:37.061Z,1014.86
2019-04-30T08:03:33.883Z,1014.85
2019-04-30T08:04:32.614Z,1014.86
2019-04-30T08:05:32.693Z,1014.89
2019-04-30T08:06:32.661Z,1014.96
2019-04-30T08:07:32.657Z,1014.95
2019-04-30T08:08:32.639Z,1014.93
2019-04-30T08:09:35.522Z,1014.81
2019-04-30T08:09:39.066Z,1014.91
2019-04-30T08:10:33.569Z,1014.91
2019-04-30T08:11:34.480Z,1014.92
2019-04-30T08:12:36.764Z,1014.88
2019-04-30T08:13:33.678Z,1014.89
2019-04-30T08:14:33.011Z,1014.89
2019-04-30T08:15:32.467Z,1014.93
2019-04-30T08:16:32.426Z,1014.92
2019-04-30T08:17:32.441Z,1014.97
2019-04-30T08:18:32.450Z,1014.87
2019-04-30T08:19:32.388Z,1014.92
2019-04-30T08:20:32.375Z,1014.85
2019-04-30T08:21:32.378Z,1014.84
2019-04-30T08:22:32.353Z,1014.92
2019-04-30T08:23:36.781Z,1014.89
2019-04-30T08:24:32.379Z,1014.92
2019-04-30T08:25:32.323Z,1014.86
2019-04-30T08:26:32.331Z,1014.83
2019-04-30T08:27:32.294Z,1014.89
2019-04-30T08:28:32.288Z,1014.76
2019-04-30T08:29:32.440Z,1014.83
2019-04-30T08:30:32.274Z,1014.86
2019-04-30T08:31:32.364Z,1014.91
2019-04-30T08:32:32.237Z,1014.85
2019-04-30T08:33:32.246Z,1014.83
2019-04-30T08:34:32.220Z,1014.81
2019-04-30T08:35:32.244Z,1014.85
2019-04-30T08:36:33.181Z,1014.85
2019-04-30T08:37:32.830Z,1014.90
2019-04-30T08:38:32.227Z,1014.89
2019-04-30T08:39:32.343Z,1014.96
2019-04-30T08:40:32.162Z,1014.91
2019-04-30T08:41:32.137Z,1014.92
2019-04-30T08:42:34.614Z,1014.94
2019-04-30T08:43:32.375Z,1014.96
2019-04-30T08:44:32.162Z,1014.95
2019-04-30T08:45:34.732Z,1014.91
2019-04-30T08:46:32.169Z,1014.87
2019-04-30T08:47:32.089Z,1014.82
2019-04-30T08:48:45.318Z,1014.83
2019-04-30T08:49:33.943Z,1014.84
2019-04-30T08:50:32.088Z,1014.81
2019-04-30T08:51:32.349Z,1014.82
2019-04-30T08:52:32.256Z,1014.82
2019-04-30T08:53:33.774Z,1014.90
2019-04-30T08:54:34.594Z,1014.88
2019-04-30T08:55:32.145Z,1014.79
2019-04-30T08:56:33.838Z,1014.83
2019-04-30T08:57:32.011Z,1014.80
2019-04-30T08:58:32.019Z,1014.80
2019-04-30T08:59:31.943Z,1014.83
2019-04-30T09:00:31.979Z,1014.79
2019-04-30T09:01:31.911Z,1014.74
2019-04-30T09:02:31.963Z,1014.84
2019-04-30T09:03:31.887Z,1014.73
2019-04-30T09:04:31.885Z,1014.84
2019-04-30T09:05:31.925Z,1014.76
2019-04-30T09:06:31.933Z,1014.73
2019-04-30T09:07:31.962Z,1014.77
2019-04-30T09:08:31.881Z,1014.73
2019-04-30T09:09:31.861Z,1014.74
2019-04-30T09:10:31.823Z,1014.71
2019-04-30T09:11:42.885Z,1014.65
2019-04-30T09:12:32.854Z,1014.72
2019-04-30T09:13:31.787Z,1014.71
2019-04-30T09:14:31.765Z,1014.70
2019-04-30T09:15:31.852Z,1014.71
2019-04-30T09:16:31.782Z,1014.71
2019-04-30T09:17:31.863Z,1014.65
2019-04-30T09:18:31.805Z,1014.67
2019-04-30T09:19:31.802Z,1014.66
2019-04-30T09:20:31.702Z,1014.62
2019-04-30T09:21:31.745Z,1014.66
2019-04-30T09:22:31.695Z,1014.56
2019-04-30T09:23:44.020Z,1014.63
2019-04-30T09:24:32.657Z,1014.62
2019-04-30T09:25:31.728Z,1014.65
2019-04-30T09:26:31.632Z,1014.71
2019-04-30T09:27:39.787Z,1014.74
2019-04-30T09:28:36.220Z,1014.66
2019-04-30T09:29:39.156Z,1014.65
2019-04-30T09:30:31.609Z,1014.64
2019-04-30T09:31:31.700Z,1014.65
2019-04-30T09:32:31.666Z,1014.71
2019-04-30T09:33:31.594Z,1014.68
2019-04-30T09:34:31.550Z,1014.72
2019-04-30T09:35:32.269Z,1014.74
2019-04-30T09:36:31.555Z,1014.73
2019-04-30T09:37:31.582Z,1014.68
2019-04-30T09:38:31.587Z,1014.70
2019-04-30T09:39:31.486Z,1014.71
2019-04-30T09:40:32.623Z,1014.67
2019-04-30T09:41:31.498Z,1014.69
2019-04-30T09:42:31.507Z,1014.68
2019-04-30T09:43:31.465Z,1014.68
2019-04-30T09:44:31.572Z,1014.75
2019-04-30T09:45:31.488Z,1014.71
2019-04-30T09:46:31.441Z,1014.77
2019-04-30T09:47:31.399Z,1014.79
2019-04-30T09:48:31.393Z,1014.81
2019-04-30T09:49:31.387Z,1014.78
2019-04-30T09:50:31.479Z,1014.69
2019-04-30T09:51:31.973Z,1014.72
2019-04-30T09:52:31.759Z,1014.71
2019-04-30T09:53:31.654Z,1014.69
2019-04-30T09:54:31.662Z,1014.75
2019-04-30T09:55:31.325Z,1014.69
2019-04-30T09:56:31.317Z,1014.65
2019-04-30T09:57:31.308Z,1014.70
2019-04-30T09:58:31.318Z,1014.72
2019-04-30T09:59:31.262Z,1014.68
2019-04-30T10:00:31.339Z,1014.73
2019-04-30T10:01:32.964Z,1014.66
2019-04-30T10:02:31.227Z,1014.66
2019-04-30T10:03:32.568Z,1014.66
2019-04-30T10:04:31.752Z,1014.63
2019-04-30T10:05:31.561Z,1014.70
2019-04-30T10:06:39.746Z,1014.63
2019-04-30T10:07:32.188Z,1014.67
2019-04-30T10:08:31.589Z,1014.74
2019-04-30T10:09:31.148Z,1014.70
2019-04-30T10:10:31.241Z,1014.61
2019-04-30T10:11:31.133Z,1014.61
2019-04-30T10:12:31.113Z,1014.61
2019-04-30T10:13:31.119Z,1014.55
2019-04-30T10:14:31.180Z,1014.50
2019-04-30T10:15:31.113Z,1014.48
2019-04-30T10:16:31.133Z,1014.49
2019-04-30T10:17:31.078Z,1014.49
2019-04-30T10:18:31.047Z,1014.47
2019-04-30T10:19:31.037Z,1014.52
2019-04-30T10:20:31.061Z,1014.52
2019-04-30T10:21:31.039Z,1014.46
2019-04-30T10:22:31.041Z,1014.46
2019-04-30T10:23:31.021Z,1014.38
2019-04-30T10:24:30.998Z,1014.35
2019-04-30T10:25:30.966Z,1014.40
2019-04-30T10:26:30.962Z,1014.35
2019-04-30T10:27:31.075Z,1014.37
2019-04-30T10:28:30.959Z,1014.34
2019-04-30T10:29:30.992Z,1014.33
2019-04-30T10:30:31.081Z,1014.33
2019-04-30T10:31:30.927Z,1014.30
2019-04-30T10:32:30.908Z,1014.30
2019-04-30T10:33:30.931Z,1014.35
2019-04-30T10:34:30.877Z,1014.39
2019-04-30T10:35:30.949Z,1014.31
2019-04-30T10:36:30.923Z,1014.34
2019-04-30T10:37:30.857Z,1014.29
2019-04-30T10:38:30.827Z,1014.34
2019-04-30T10:39:30.834Z,1014.22
2019-04-30T10:40:30.845Z,1014.22
2019-04-30T10:41:30.864Z,1014.38
2019-04-30T10:42:30.809Z,1014.26
2019-04-30T10:43:32.045Z,1014.20
2019-04-30T10:44:30.777Z,1014.26
2019-04-30T10:45:30.804Z,1014.20
2019-04-30T10:46:30.857Z,1014.19
2019-04-30T10:47:32.674Z,1014.13
2019-04-30T10:48:30.756Z,1014.26
2019-04-30T10:49:30.729Z,1014.25
2019-04-30T10:50:30.710Z,1014.17
2019-04-30T10:51:30.733Z,1014.12
2019-04-30T10:52:30.689Z,1014.11
2019-04-30T10:53:30.663Z,1014.15
2019-04-30T10:54:30.650Z,1014.12
2019-04-30T10:55:31.172Z,1014.10
2019-04-30T10:56:30.629Z,1014.05
2019-04-30T10:57:30.798Z,1014.04
2019-04-30T10:58:30.702Z,1014.02
2019-04-30T10:59:30.597Z,1013.98
2019-04-30T11:00:30.588Z,1013.97
2019-04-30T11:01:30.715Z,1014.01
2019-04-30T11:02:31.234Z,1014.02
2019-04-30T11:03:30.616Z,1013.91
2019-04-30T11:04:30.537Z,1014.01
2019-04-30T11:05:30.608Z,1013.95
2019-04-30T11:06:30.771Z,1013.94
2019-04-30T11:07:30.626Z,1013.92
2019-04-30T11:08:30.535Z,1013.94
2019-04-30T11:09:31.049Z,1013.99
2019-04-30T11:10:30.472Z,1013.74
2019-04-30T11:11:30.658Z,1013.93
2019-04-30T11:12:30.640Z,1013.85
2019-04-30T11:13:30.476Z,1013.93
2019-04-30T11:14:30.453Z,1013.88
2019-04-30T11:15:30.430Z,1013.80
2019-04-30T11:16:30.532Z,1013.76
2019-04-30T11:17:33.094Z,1013.82
2019-04-30T11:18:30.626Z,1013.85
2019-04-30T11:19:30.590Z,1013.83
2019-04-30T11:20:35.992Z,1013.76
2019-04-30T11:21:30.606Z,1013.78
2019-04-30T11:22:30.570Z,1013.82
2019-04-30T11:23:30.477Z,1013.71
2019-04-30T11:24:36.526Z,1013.75
2019-04-30T11:25:32.230Z,1013.70
2019-04-30T11:26:31.989Z,1013.74
2019-04-30T11:27:31.179Z,1013.78
2019-04-30T11:28:30.582Z,1013.71
2019-04-30T11:29:30.961Z,1013.68
2019-04-30T11:30:30.519Z,1013.59
2019-04-30T11:31:30.448Z,1013.61
2019-04-30T11:32:30.488Z,1013.60
2019-04-30T11:33:30.518Z,1013.55
2019-04-30T11:34:30.200Z,1013.53
2019-04-30T11:35:30.212Z,1013.55
2019-04-30T11:36:30.184Z,1013.60
2019-04-30T11:37:30.223Z,1013.42
2019-04-30T11:38:30.155Z,1013.44
2019-04-30T11:39:30.147Z,1013.41
2019-04-30T11:40:36.608Z,1013.54
2019-04-30T11:41:33.315Z,1013.47
2019-04-30T11:42:32.289Z,1013.53
2019-04-30T11:43:30.185Z,1013.48
2019-04-30T11:44:31.434Z,1013.50
2019-04-30T11:45:30.204Z,1013.43
2019-04-30T11:46:30.069Z,1013.37
2019-04-30T11:47:30.099Z,1013.46
2019-04-30T11:48:30.064Z,1013.39
2019-04-30T11:49:30.081Z,1013.38
2019-04-30T11:50:30.224Z,1013.35
2019-04-30T11:51:30.020Z,1013.45
2019-04-30T11:52:30.003Z,1013.39
2019-04-30T11:53:30.779Z,1013.31
2019-04-30T11:54:30.000Z,1013.38
2019-04-30T11:55:30.374Z,1013.30
2019-04-30T11:56:29.952Z,1013.29
2019-04-30T11:57:30.012Z,1013.24
2019-04-30T11:58:30.608Z,1013.28
2019-04-30T11:59:29.937Z,1013.26
2019-04-30T12:00:29.989Z,1013.22
2019-04-30T12:01:29.899Z,1013.31
2019-04-30T12:02:30.046Z,1013.23
2019-04-30T12:03:30.376Z,1013.21
2019-04-30T12:04:30.056Z,1013.27
2019-04-30T12:05:29.858Z,1013.24